Time;durP1;ratioP1;P1;durP2;ratioP2;P2;SDS_P1;SDS_P2;PMS_P1;PMS_P2;Temp;Humidity;BMP_temperature;BMP_pressure;BME280_temperature;BME280_humidity;BME280_pressure;Samples;Min_cycle;Max_cycle;Signal;HPM_P1;HPM_P2
2021/12/04 00:01:17;;;;;;;18.85;6.90;;;4.10;99.90;;;;;;5105446;28;20476;-75
2021/12/04 00:03:42;;;;;;;12.48;5.65;;;4.20;99.90;;;;;;5087289;28;20028;-78
2021/12/04 00:06:15;;;;;;;11.20;5.15;;;4.20;99.90;;;;;;5087179;28;20032;-77
2021/12/04 00:08:45;;;;;;;13.43;5.40;;;4.20;99.90;;;;;;5087208;28;20114;-74
2021/12/04 00:11:10;;;;;;;17.20;5.88;;;4.10;99.90;;;;;;5105316;28;20028;-74
2021/12/04 00:13:38;;;;;;;19.48;6.05;;;4.10;99.90;;;;;;5087141;28;20392;-78
2021/12/04 00:16:05;;;;;;;21.73;7.72;;;4.10;99.90;;;;;;5105292;28;20039;-75
2021/12/04 00:18:35;;;;;;;13.95;5.88;;;4.10;99.90;;;;;;5105321;28;20038;-78
2021/12/04 00:21:01;;;;;;;18.45;6.50;;;4.20;99.90;;;;;;5087151;28;20503;-76
2021/12/04 00:23:26;;;;;;;15.32;5.65;;;4.10;99.90;;;;;;5086984;28;20050;-78
2021/12/04 00:25:52;;;;;;;17.73;7.05;;;4.20;99.90;;;;;;5067780;28;20055;-75
2021/12/04 00:28:17;;;;;;;17.88;6.07;;;4.20;99.90;;;;;;5074463;28;20025;-79
2021/12/04 00:30:44;;;;;;;16.88;6.88;;;4.30;99.90;;;;;;5087061;28;20434;-76
2021/12/04 00:33:19;;;;;;;13.43;5.60;;;4.20;99.90;;;;;;5104963;28;20075;-78
2021/12/04 00:36:08;;;;;;;16.20;7.32;;;4.20;99.90;;;;;;5086935;28;20028;-76
2021/12/04 00:49:19;;;;;;;18.98;7.07;;;4.20;99.90;;;;;;5105302;28;20040;-76
2021/12/04 00:51:53;;;;;;;16.90;6.28;;;4.30;99.90;;;;;;5086681;28;20126;-78
2021/12/04 00:54:19;;;;;;;15.82;6.38;;;4.20;99.90;;;;;;5084347;28;20081;-79
2021/12/04 00:56:46;;;;;;;16.25;5.68;;;4.30;99.90;;;;;;5066376;28;20040;-75
2021/12/04 00:59:12;;;;;;;20.48;7.00;;;4.20;99.90;;;;;;5066318;28;20075;-77
2021/12/04 01:01:40;;;;;;;13.43;4.75;;;4.20;99.90;;;;;;5084655;28;20392;-77
2021/12/04 01:04:12;;;;;;;15.55;6.93;;;4.20;99.90;;;;;;5084710;28;20044;-78
2021/12/04 01:06:39;;;;;;;16.75;6.40;;;4.20;99.90;;;;;;5066814;28;20043;-75
2021/12/04 01:09:08;;;;;;;22.08;6.82;;;4.20;99.90;;;;;;5069602;28;20044;-78
2021/12/04 01:11:34;;;;;;;16.45;6.28;;;4.20;99.90;;;;;;5088536;28;20024;-79
2021/12/04 01:14:00;;;;;;;19.98;7.85;;;4.20;99.90;;;;;;5070184;28;20028;-76
2021/12/04 01:16:26;;;;;;;11.98;5.32;;;4.20;99.90;;;;;;5088196;28;20036;-76
2021/12/04 01:18:51;;;;;;;19.73;6.80;;;4.20;99.90;;;;;;5070106;28;20443;-76
2021/12/04 01:21:17;;;;;;;14.25;5.35;;;4.20;99.90;;;;;;5069960;28;20021;-75
2021/12/04 01:23:42;;;;;;;15.98;6.15;;;4.20;99.90;;;;;;5070124;28;20021;-76
2021/12/04 01:26:08;;;;;;;20.33;7.03;;;4.30;99.90;;;;;;5087949;28;20408;-77
2021/12/04 01:28:35;;;;;;;18.05;6.25;;;4.20;99.90;;;;;;5069939;28;20376;-77
2021/12/04 01:31:01;;;;;;;12.32;4.45;;;4.30;99.90;;;;;;5070043;28;20032;-77
2021/12/04 01:33:27;;;;;;;15.55;5.05;;;4.30;99.90;;;;;;5087710;28;20052;-75
2021/12/04 01:35:53;;;;;;;14.27;6.05;;;4.30;99.90;;;;;;5069748;28;20094;-75
2021/12/04 01:38:18;;;;;;;14.50;6.60;;;4.20;99.90;;;;;;5069764;28;20039;-77
2021/12/04 01:40:45;;;;;;;18.65;7.18;;;4.30;99.90;;;;;;5069762;28;20469;-74
2021/12/04 01:43:10;;;;;;;17.50;7.25;;;4.30;99.90;;;;;;5069766;28;20044;-78
2021/12/04 01:45:36;;;;;;;12.82;4.68;;;4.30;99.90;;;;;;5087569;28;20067;-75
2021/12/04 01:48:03;;;;;;;15.38;5.38;;;4.30;99.90;;;;;;5069718;28;20047;-76
2021/12/04 01:50:31;;;;;;;19.38;7.25;;;4.30;99.90;;;;;;5087615;28;20032;-75
2021/12/04 01:52:58;;;;;;;15.05;6.00;;;4.30;99.90;;;;;;5069720;28;20036;-78
2021/12/04 01:55:25;;;;;;;17.83;6.47;;;4.30;99.90;;;;;;5069447;28;20041;-78
2021/12/04 01:57:51;;;;;;;13.13;5.93;;;4.40;99.90;;;;;;5069403;28;20028;-78
2021/12/04 02:00:17;;;;;;;15.32;6.25;;;4.30;99.90;;;;;;5069437;28;20488;-77
2021/12/04 02:02:42;;;;;;;18.55;8.18;;;4.20;99.90;;;;;;5087279;28;20082;-76
2021/12/04 02:05:08;;;;;;;27.58;6.50;;;4.30;99.90;;;;;;5069239;28;20472;-78
2021/12/04 02:07:34;;;;;;;18.15;6.97;;;4.30;99.90;;;;;;5069369;28;20115;-78
2021/12/04 02:10:03;;;;;;;15.27;5.85;;;4.30;99.90;;;;;;5087308;28;20526;-75
2021/12/04 02:12:30;;;;;;;18.75;6.93;;;4.30;99.90;;;;;;5069080;28;20412;-75
2021/12/04 02:14:55;;;;;;;16.33;7.03;;;4.30;99.90;;;;;;5091770;28;20170;-77
2021/12/04 02:17:21;;;;;;;14.70;5.82;;;4.30;99.90;;;;;;5068985;28;20097;-75
2021/12/04 02:19:49;;;;;;;16.30;7.05;;;4.30;99.90;;;;;;5068923;28;20021;-79
2021/12/04 02:22:15;;;;;;;16.58;5.68;;;4.30;99.90;;;;;;5068715;28;20051;-76
2021/12/04 02:24:41;;;;;;;19.08;6.97;;;4.30;99.90;;;;;;5086910;28;20040;-76
2021/12/04 02:27:09;;;;;;;17.08;7.25;;;4.30;99.90;;;;;;5068882;28;20033;-77
2021/12/04 02:29:34;;;;;;;21.00;7.32;;;4.20;99.90;;;;;;5086979;28;20092;-77
2021/12/04 02:32:00;;;;;;;19.65;7.75;;;4.30;99.90;;;;;;5086872;28;20059;-76
2021/12/04 02:34:29;;;;;;;21.60;7.80;;;4.20;99.90;;;;;;5086503;28;20063;-76
2021/12/04 02:36:56;;;;;;;18.08;6.93;;;4.30;99.90;;;;;;5091507;28;20032;-75
2021/12/04 02:39:28;;;;;;;16.08;6.88;;;4.20;99.90;;;;;;5088627;28;20020;-76
2021/12/04 02:41:54;;;;;;;13.20;6.00;;;4.30;99.90;;;;;;5088573;28;20028;-77
2021/12/04 02:44:23;;;;;;;17.63;5.68;;;4.20;99.90;;;;;;5088505;28;20044;-74
2021/12/04 02:46:49;;;;;;;23.75;7.07;;;4.20;99.90;;;;;;5106770;28;20237;-75
2021/12/04 02:49:15;;;;;;;17.98;7.82;;;4.30;99.90;;;;;;5106881;28;20028;-74
2021/12/04 02:51:44;;;;;;;19.52;6.95;;;4.20;99.90;;;;;;5088414;28;20028;-76
2021/12/04 02:54:11;;;;;;;24.02;7.68;;;4.30;99.90;;;;;;5106789;28;20032;-77
2021/12/04 02:56:38;;;;;;;20.95;7.85;;;4.40;99.90;;;;;;5088445;28;20043;-77
2021/12/04 02:59:04;;;;;;;18.25;7.18;;;4.30;99.90;;;;;;5088425;28;20028;-75
2021/12/04 03:01:30;;;;;;;20.95;7.47;;;4.30;99.90;;;;;;5101559;28;20024;-79
2021/12/04 03:04:11;;;;;;;19.67;6.13;;;4.30;99.90;;;;;;5086181;28;20052;-75
2021/12/04 03:06:44;;;;;;;21.67;7.88;;;4.30;99.90;;;;;;5068275;28;20081;-77
2021/12/04 03:09:11;;;;;;;21.50;6.85;;;4.40;99.90;;;;;;5086046;28;20028;-76
2021/12/04 03:11:37;;;;;;;15.32;7.25;;;4.30;99.90;;;;;;5079202;28;20032;-77
2021/12/04 03:14:04;;;;;;;18.40;7.53;;;4.30;99.90;;;;;;5106531;28;20047;-76
2021/12/04 03:16:31;;;;;;;16.98;6.53;;;4.30;99.90;;;;;;5106285;28;20028;-77
2021/12/04 03:18:57;;;;;;;25.20;8.23;;;4.30;99.90;;;;;;5106153;28;20028;-76
2021/12/04 03:21:22;;;;;;;22.48;8.45;;;4.30;99.90;;;;;;5088043;28;20126;-77
2021/12/04 03:24:04;;;;;;;21.58;7.68;;;4.30;99.90;;;;;;5106071;28;20028;-75
2021/12/04 03:26:31;;;;;;;23.77;8.15;;;4.40;99.90;;;;;;5106282;28;20047;-75
2021/12/04 03:29:00;;;;;;;20.00;8.40;;;4.30;99.90;;;;;;5105984;28;20028;-75
2021/12/04 03:31:43;;;;;;;22.08;8.30;;;4.30;99.90;;;;;;5087237;28;20462;-77
2021/12/04 03:42:36;;;;;;;22.02;8.32;;;4.30;99.90;;;;;;5106303;28;20031;-74
2021/12/04 03:45:04;;;;;;;29.85;9.95;;;4.30;99.90;;;;;;5105744;28;20137;-76
2021/12/04 03:47:30;;;;;;;22.67;7.53;;;4.30;99.90;;;;;;5087500;28;20059;-78
2021/12/04 03:49:57;;;;;;;27.83;9.80;;;4.30;99.90;;;;;;5105706;28;20028;-78
2021/12/04 03:52:25;;;;;;;21.70;8.25;;;4.30;99.90;;;;;;5087449;28;20040;-78
2021/12/04 03:54:51;;;;;;;23.50;8.27;;;4.30;99.90;;;;;;5087423;28;20035;-78
2021/12/04 03:57:18;;;;;;;23.85;8.70;;;4.40;99.90;;;;;;5087476;28;20028;-75
2021/12/04 03:59:48;;;;;;;28.00;9.30;;;4.30;99.90;;;;;;5087213;28;20024;-79
2021/12/04 04:02:15;;;;;;;30.52;10.85;;;4.30;99.90;;;;;;5087153;28;20123;-75
2021/12/04 04:04:41;;;;;;;21.63;7.93;;;4.30;99.90;;;;;;5105283;28;20476;-76
2021/12/04 04:07:07;;;;;;;32.05;9.70;;;4.30;99.90;;;;;;5105473;28;20087;-75
2021/12/04 04:09:33;;;;;;;28.27;8.82;;;4.20;99.90;;;;;;5087358;28;20034;-77
2021/12/04 04:11:59;;;;;;;26.20;8.85;;;4.30;99.90;;;;;;5087352;28;20119;-76
2021/12/04 04:14:25;;;;;;;29.63;9.95;;;4.40;99.90;;;;;;5087126;28;20028;-77
2021/12/04 04:16:54;;;;;;;27.75;9.05;;;4.30;99.90;;;;;;5105363;28;20543;-77
2021/12/04 04:19:20;;;;;;;19.63;8.02;;;4.40;99.90;;;;;;5105232;28;20035;-77
2021/12/04 04:21:46;;;;;;;24.02;9.32;;;4.30;99.90;;;;;;5105254;28;20024;-74
2021/12/04 04:24:14;;;;;;;26.10;8.90;;;4.30;99.90;;;;;;5086567;28;20024;-77
2021/12/04 04:26:42;;;;;;;22.08;8.18;;;4.30;99.90;;;;;;5104984;28;20024;-77
2021/12/04 04:29:09;;;;;;;19.73;7.82;;;4.30;99.90;;;;;;5105204;28;20020;-77
2021/12/04 04:31:37;;;;;;;24.45;9.30;;;4.30;99.90;;;;;;5105150;28;20032;-78
2021/12/04 04:34:06;;;;;;;25.65;10.60;;;4.30;99.90;;;;;;5105139;28;20052;-78
2021/12/04 04:58:41;;;;;;;34.47;10.13;;;4.40;99.90;;;;;;5108977;28;20035;-76
2021/12/04 05:12:12;;;;;;;29.55;10.48;;;4.40;99.90;;;;;;5108757;28;20058;-78
2021/12/04 05:14:41;;;;;;;25.95;8.95;;;4.40;99.90;;;;;;5090674;28;20096;-75
2021/12/04 05:17:14;;;;;;;32.00;11.80;;;4.40;99.90;;;;;;5108795;28;20392;-75
2021/12/04 05:20:01;;;;;;;26.38;10.15;;;4.40;99.90;;;;;;5108650;28;20020;-74
2021/12/04 05:22:26;;;;;;;28.20;10.23;;;4.40;99.90;;;;;;5108116;28;20054;-74
2021/12/04 05:24:51;;;;;;;23.83;9.48;;;4.40;99.90;;;;;;5090075;28;20044;-75
2021/12/04 05:27:17;;;;;;;30.35;11.07;;;4.40;99.90;;;;;;5090021;28;20024;-77
2021/12/04 05:29:43;;;;;;;30.17;10.80;;;4.40;99.90;;;;;;5089814;28;20573;-75
2021/12/04 05:32:10;;;;;;;25.98;9.80;;;4.40;99.90;;;;;;5108342;28;20024;-76
2021/12/04 05:34:36;;;;;;;25.92;8.48;;;4.40;99.90;;;;;;5086389;28;20044;-77
2021/12/04 05:37:02;;;;;;;22.27;9.35;;;4.40;99.90;;;;;;5086513;28;20048;-74
2021/12/04 05:39:28;;;;;;;20.45;8.68;;;4.40;99.90;;;;;;5086657;28;20020;-76
2021/12/04 05:41:55;;;;;;;36.60;9.90;;;4.50;99.90;;;;;;5087760;28;20033;-76
2021/12/04 05:44:24;;;;;;;27.40;10.57;;;4.40;99.90;;;;;;5087539;28;20036;-77
2021/12/04 05:47:01;;;;;;;22.70;9.90;;;4.60;99.90;;;;;;5086493;28;20039;-78
2021/12/04 05:52:10;;;;;;;25.20;10.00;;;4.50;99.90;;;;;;5087601;28;20043;-75
2021/12/04 05:57:07;;;;;;;26.92;10.18;;;4.40;99.90;;;;;;5087631;28;20433;-77
2021/12/04 05:59:33;;;;;;;28.60;10.27;;;4.40;99.90;;;;;;5087573;28;20032;-76
2021/12/04 06:01:58;;;;;;;29.17;10.02;;;4.40;99.90;;;;;;5086111;28;20081;-77
2021/12/04 06:04:24;;;;;;;27.02;10.35;;;4.40;99.90;;;;;;5087181;28;20060;-76
2021/12/04 06:06:50;;;;;;;34.33;11.05;;;4.40;99.90;;;;;;5085297;28;20028;-76
2021/12/04 06:09:16;;;;;;;31.00;11.40;;;4.40;99.90;;;;;;5066983;28;20033;-76
2021/12/04 06:11:43;;;;;;;26.92;10.30;;;4.40;99.90;;;;;;5080076;28;20035;-75
2021/12/04 06:14:08;;;;;;;25.98;10.48;;;4.30;99.90;;;;;;5087077;28;20041;-76
2021/12/04 06:16:34;;;;;;;29.45;9.95;;;4.30;99.90;;;;;;5087343;28;20029;-76
2021/12/04 06:19:26;;;;;;;26.33;10.48;;;4.30;99.90;;;;;;5082365;28;20064;-76
2021/12/04 06:24:36;;;;;;;34.28;11.07;;;4.30;99.90;;;;;;5070272;28;20062;-78
2021/12/04 06:27:02;;;;;;;30.80;11.45;;;4.30;99.90;;;;;;5087488;28;20496;-75
2021/12/04 06:29:27;;;;;;;28.80;10.75;;;4.30;99.90;;;;;;5086949;28;20062;-75
2021/12/04 06:31:54;;;;;;;22.25;10.32;;;4.30;99.90;;;;;;5086864;28;20357;-75
2021/12/04 06:34:19;;;;;;;25.90;9.82;;;4.30;99.90;;;;;;5099945;28;20082;-74
2021/12/04 06:36:45;;;;;;;32.92;11.05;;;4.30;99.90;;;;;;5088759;28;20024;-77
2021/12/04 06:39:11;;;;;;;34.13;11.02;;;4.30;99.90;;;;;;5092939;28;21597;-79
2021/12/04 06:41:46;;;;;;;25.92;10.38;;;4.30;99.90;;;;;;5106899;28;20056;-80
2021/12/04 06:44:11;;;;;;;26.85;9.07;;;4.30;99.90;;;;;;5069926;28;20106;-78
2021/12/04 06:46:37;;;;;;;26.27;9.50;;;4.30;99.90;;;;;;5086637;28;20029;-80
2021/12/04 06:49:15;;;;;;;42.17;11.48;;;4.30;99.90;;;;;;5075573;28;20399;-81
2021/12/04 06:51:46;;;;;;;29.55;9.80;;;4.30;99.90;;;;;;5091871;28;20032;-81
2021/12/04 06:56:41;;;;;;;28.42;10.80;;;4.30;99.90;;;;;;5093217;28;20036;-77
2021/12/04 06:59:12;;;;;;;25.50;9.50;;;4.30;99.90;;;;;;5106760;28;20465;-78
2021/12/04 07:01:39;;;;;;;32.90;11.50;;;4.30;99.90;;;;;;5088092;28;20032;-78
2021/12/04 07:04:06;;;;;;;25.48;9.00;;;4.30;99.90;;;;;;5106771;28;20024;-78
2021/12/04 07:06:32;;;;;;;28.50;9.57;;;4.30;99.90;;;;;;5086983;28;20031;-78
2021/12/04 07:08:58;;;;;;;33.90;11.13;;;4.30;99.90;;;;;;5087935;28;20079;-81
2021/12/04 07:11:26;;;;;;;30.17;11.15;;;4.30;99.90;;;;;;5085194;28;20028;-76
2021/12/04 07:13:52;;;;;;;30.90;10.52;;;4.30;99.90;;;;;;5094501;28;20032;-79
2021/12/04 07:16:23;;;;;;;26.63;9.45;;;4.30;99.90;;;;;;5092348;28;20042;-75
2021/12/04 07:18:48;;;;;;;30.48;10.32;;;4.30;99.90;;;;;;5076453;28;20082;-77
2021/12/04 07:21:15;;;;;;;27.08;8.95;;;4.30;99.90;;;;;;5067490;28;20024;-76
2021/12/04 07:23:49;;;;;;;28.23;10.35;;;4.30;99.90;;;;;;5067669;28;20037;-77
2021/12/04 07:26:15;;;;;;;36.05;10.35;;;4.30;99.90;;;;;;5085315;28;20061;-77
2021/12/04 07:28:40;;;;;;;33.40;11.15;;;4.30;99.90;;;;;;5073705;28;20052;-77
2021/12/04 07:31:08;;;;;;;32.38;11.88;;;4.30;99.90;;;;;;5093334;28;20037;-77
2021/12/04 07:33:33;;;;;;;29.45;9.73;;;4.30;99.90;;;;;;5085468;28;20078;-76
2021/12/04 07:36:00;;;;;;;33.88;10.25;;;4.30;99.90;;;;;;5066663;28;20058;-75
2021/12/04 07:38:27;;;;;;;21.65;8.32;;;4.30;99.90;;;;;;5085042;28;20467;-80
2021/12/04 07:40:53;;;;;;;27.88;9.25;;;4.40;99.90;;;;;;5084758;28;20449;-77
2021/12/04 07:43:19;;;;;;;32.03;11.00;;;4.30;99.90;;;;;;5090101;28;20078;-78
2021/12/04 07:45:45;;;;;;;27.27;10.48;;;4.30;99.90;;;;;;5078644;28;20044;-78
2021/12/04 07:48:11;;;;;;;28.67;10.65;;;4.30;99.90;;;;;;5086901;28;20032;-77
2021/12/04 07:50:41;;;;;;;26.73;10.80;;;4.40;99.90;;;;;;5073641;28;20042;-76
2021/12/04 07:53:07;;;;;;;31.17;10.00;;;4.30;99.90;;;;;;5085676;28;20040;-79
2021/12/04 07:55:34;;;;;;;29.45;11.05;;;4.30;99.90;;;;;;5068158;28;20883;-76
2021/12/04 07:58:00;;;;;;;34.28;10.80;;;4.30;99.90;;;;;;5072562;28;20032;-75
2021/12/04 08:00:26;;;;;;;26.77;9.63;;;4.30;99.90;;;;;;5077626;28;20431;-76
2021/12/04 08:02:52;;;;;;;33.50;10.45;;;4.30;99.90;;;;;;5087332;28;20028;-77
2021/12/04 08:05:18;;;;;;;25.02;9.13;;;4.40;99.90;;;;;;5102541;28;20048;-75
2021/12/04 08:07:44;;;;;;;23.13;10.25;;;4.40;99.90;;;;;;5105352;28;20031;-78
2021/12/04 08:10:14;;;;;;;36.92;11.50;;;4.50;99.90;;;;;;5092071;28;20032;-78
2021/12/04 08:12:41;;;;;;;23.83;10.23;;;4.40;99.90;;;;;;5092039;28;20065;-74
2021/12/04 08:15:09;;;;;;;26.80;10.07;;;4.40;99.90;;;;;;5090690;28;20044;-78
2021/12/04 08:17:37;;;;;;;24.10;10.30;;;4.40;99.90;;;;;;5085498;28;20049;-76
2021/12/04 08:20:04;;;;;;;25.90;8.50;;;4.40;99.90;;;;;;5089751;28;20085;-79
2021/12/04 08:22:30;;;;;;;23.08;9.65;;;4.40;99.90;;;;;;5091451;28;20048;-79
2021/12/04 08:24:55;;;;;;;22.90;7.72;;;4.40;99.90;;;;;;5084891;28;20036;-77
2021/12/04 08:27:21;;;;;;;30.30;9.57;;;4.40;99.90;;;;;;5100687;28;20092;-78
2021/12/04 08:29:47;;;;;;;19.58;7.70;;;4.40;99.90;;;;;;5105243;28;20094;-78
2021/12/04 08:32:13;;;;;;;28.13;9.35;;;4.40;99.90;;;;;;5096271;28;20028;-80
2021/12/04 08:34:48;;;;;;;17.40;7.32;;;4.40;99.90;;;;;;5085196;28;20056;-79
2021/12/04 08:37:14;;;;;;;22.08;9.00;;;4.50;99.90;;;;;;5066670;28;20036;-79
2021/12/04 08:39:39;;;;;;;26.90;9.88;;;4.50;99.90;;;;;;5068736;28;20028;-78
2021/12/04 08:42:06;;;;;;;19.08;7.57;;;4.60;99.90;;;;;;5095466;28;20031;-78
2021/12/04 08:44:38;;;;;;;19.33;8.32;;;4.50;99.90;;;;;;5085503;28;20472;-81
2021/12/04 08:47:08;;;;;;;21.92;7.55;;;4.60;99.90;;;;;;5091299;28;20029;-77
2021/12/04 08:49:37;;;;;;;20.60;7.22;;;4.60;99.90;;;;;;5085297;28;20041;-77
2021/12/04 08:52:04;;;;;;;23.65;8.05;;;4.60;99.90;;;;;;5084966;28;20094;-77
2021/12/04 08:54:31;;;;;;;17.63;6.32;;;4.60;99.90;;;;;;5066695;28;20032;-79
2021/12/04 08:56:57;;;;;;;20.40;7.53;;;4.60;99.90;;;;;;5084653;28;20415;-77
2021/12/04 08:59:34;;;;;;;18.42;6.65;;;4.60;99.90;;;;;;5084594;28;20546;-80
2021/12/04 09:02:00;;;;;;;25.77;7.43;;;4.60;99.90;;;;;;5085053;28;20869;-75
2021/12/04 09:04:30;;;;;;;24.58;8.07;;;4.60;99.90;;;;;;5084410;28;20086;-77
2021/12/04 09:06:57;;;;;;;15.73;7.35;;;4.50;99.90;;;;;;5066385;28;20028;-78
2021/12/04 09:09:23;;;;;;;14.18;6.68;;;4.60;99.90;;;;;;5066522;28;20033;-80
2021/12/04 09:11:53;;;;;;;22.23;7.40;;;4.60;99.90;;;;;;5085644;28;20035;-80
2021/12/04 09:14:23;;;;;;;21.27;8.15;;;4.50;99.90;;;;;;5075724;28;20028;-79
2021/12/04 09:16:51;;;;;;;22.05;6.47;;;4.60;99.90;;;;;;5084484;28;20025;-79
2021/12/04 09:19:17;;;;;;;16.52;6.20;;;4.60;99.90;;;;;;5093581;28;20469;-80
2021/12/04 09:21:44;;;;;;;15.18;6.28;;;4.60;99.90;;;;;;5103199;28;20101;-80
2021/12/04 09:24:13;;;;;;;19.23;8.02;;;4.50;99.90;;;;;;5083766;28;20036;-76
2021/12/04 09:59:10;;;;;;;35.85;14.00;;;4.50;99.90;;;;;;5086224;28;20036;-79
2021/12/04 10:16:11;;;;;;;28.83;11.38;;;4.50;99.90;;;;;;5088466;28;20043;-78
2021/12/04 10:19:12;;;;;;;27.15;9.98;;;4.50;99.90;;;;;;5090084;28;20025;-78
2021/12/04 10:24:41;;;;;;;31.90;10.80;;;4.50;99.90;;;;;;5086927;28;20431;-78
2021/12/04 10:32:39;;;;;;;20.02;7.25;;;4.60;99.90;;;;;;5087030;28;20764;-80
2021/12/04 10:35:18;;;;;;;24.50;8.10;;;4.60;99.90;;;;;;5079126;28;20449;-78
2021/12/04 10:38:01;;;;;;;24.70;8.43;;;4.60;99.90;;;;;;5106509;28;20039;-80
2021/12/04 10:40:38;;;;;;;28.60;13.23;;;4.60;99.90;;;;;;5106896;28;20024;-78
2021/12/04 10:43:11;;;;;;;27.42;10.50;;;4.60;99.90;;;;;;5096301;28;20028;-76
2021/12/04 10:45:44;;;;;;;19.25;6.60;;;4.60;99.90;;;;;;5086680;28;20099;-78
2021/12/04 10:48:17;;;;;;;17.08;6.35;;;4.60;99.90;;;;;;5086624;28;20031;-76
2021/12/04 10:51:06;;;;;;;19.10;6.90;;;4.60;99.90;;;;;;5086554;28;20029;-78
2021/12/04 10:53:45;;;;;;;17.73;7.57;;;4.70;99.90;;;;;;5068517;28;20044;-77
2021/12/04 10:56:26;;;;;;;15.75;6.43;;;4.70;99.90;;;;;;5086533;28;20035;-79
2021/12/04 10:59:15;;;;;;;21.13;7.63;;;4.70;99.90;;;;;;5068406;28;20021;-77
2021/12/04 11:02:08;;;;;;;22.42;7.13;;;4.70;99.90;;;;;;5086534;28;20057;-78
2021/12/04 11:04:59;;;;;;;18.58;7.40;;;4.70;99.90;;;;;;5071126;28;20040;-79
2021/12/04 11:19:08;;;;;;;25.50;10.02;;;4.70;99.90;;;;;;5098972;28;20075;-77
2021/12/04 11:22:29;;;;;;;23.80;7.82;;;4.60;99.90;;;;;;5087521;28;20597;-76
2021/12/04 11:27:28;;;;;;;37.20;14.82;;;4.60;99.90;;;;;;5106056;28;20058;-77
2021/12/04 11:43:35;;;;;;;18.73;6.78;;;4.70;99.90;;;;;;5085239;28;20031;-77
2021/12/04 11:48:48;;;;;;;21.20;6.60;;;4.70;99.90;;;;;;5085661;28;20051;-76
2021/12/04 11:51:21;;;;;;;23.05;7.97;;;4.70;99.90;;;;;;5066842;28;20055;-77
2021/12/04 11:53:51;;;;;;;18.83;6.80;;;4.70;99.90;;;;;;5085300;28;20104;-77
2021/12/04 11:56:25;;;;;;;16.70;7.43;;;4.70;99.90;;;;;;5085243;28;20031;-76
2021/12/04 11:58:53;;;;;;;17.55;7.35;;;4.70;99.90;;;;;;5067146;28;20028;-77
2021/12/04 12:01:33;;;;;;;23.05;8.27;;;4.70;99.90;;;;;;5095069;28;20035;-77
2021/12/04 12:04:07;;;;;;;17.23;6.45;;;4.80;99.90;;;;;;5090492;28;20033;-76
2021/12/04 12:06:37;;;;;;;16.02;7.07;;;4.80;99.90;;;;;;5085201;28;20055;-77
2021/12/04 12:09:06;;;;;;;13.23;6.40;;;4.80;99.90;;;;;;5085430;28;20028;-76
2021/12/04 12:11:31;;;;;;;23.73;7.95;;;4.80;99.90;;;;;;5067218;28;20035;-75
2021/12/04 12:14:11;;;;;;;12.32;5.68;;;4.80;99.90;;;;;;5084891;28;20021;-82
2021/12/04 12:16:53;;;;;;;14.13;6.00;;;4.80;99.90;;;;;;5085075;28;20455;-77
2021/12/04 12:19:29;;;;;;;17.80;7.10;;;4.70;99.90;;;;;;5066612;28;20024;-77
2021/12/04 12:22:19;;;;;;;16.88;6.50;;;4.80;99.90;;;;;;5068114;28;20066;-76
2021/12/04 12:27:44;;;;;;;21.58;7.95;;;4.80;99.90;;;;;;5089274;28;20032;-78
2021/12/04 12:33:24;;;;;;;20.17;8.07;;;4.80;99.90;;;;;;5089187;28;20094;-77
2021/12/04 12:36:03;;;;;;;21.67;7.90;;;4.90;99.90;;;;;;5084912;28;20086;-78
2021/12/04 12:38:35;;;;;;;16.73;6.82;;;4.80;99.90;;;;;;5066602;28;20032;-77
2021/12/04 12:41:08;;;;;;;16.52;6.72;;;4.80;99.90;;;;;;5066732;28;20035;-74
2021/12/04 12:43:49;;;;;;;12.55;5.80;;;4.90;99.90;;;;;;5073943;28;20028;-76
2021/12/04 12:46:16;;;;;;;19.30;7.50;;;4.90;99.90;;;;;;5102632;28;20165;-75
2021/12/04 12:48:52;;;;;;;23.80;7.00;;;4.90;99.90;;;;;;5084577;28;20029;-76
2021/12/04 12:51:27;;;;;;;18.85;7.18;;;4.90;99.90;;;;;;5085084;28;20025;-76
2021/12/04 12:53:53;;;;;;;19.00;5.72;;;4.90;99.90;;;;;;5084500;28;20025;-76
2021/12/04 12:56:22;;;;;;;19.13;6.35;;;5.00;99.90;;;;;;5084842;28;20036;-78
2021/12/04 12:58:55;;;;;;;21.17;8.25;;;4.90;99.90;;;;;;5070939;28;20020;-78
2021/12/04 13:12:52;;;;;;;21.92;8.93;;;5.00;99.90;;;;;;5087637;28;20106;-76
2021/12/04 13:15:41;;;;;;;15.60;6.90;;;5.00;99.90;;;;;;5087240;28;20078;-74
2021/12/04 13:18:21;;;;;;;17.35;6.60;;;5.00;99.90;;;;;;5069614;28;20020;-76
2021/12/04 13:20:47;;;;;;;16.85;6.95;;;5.00;99.90;;;;;;5087292;28;20032;-75
2021/12/04 13:23:17;;;;;;;29.10;10.93;;;5.00;99.90;;;;;;5086831;28;20106;-75
2021/12/04 13:25:56;;;;;;;32.75;12.07;;;5.00;99.90;;;;;;5091072;28;20045;-74
2021/12/04 13:28:25;;;;;;;20.38;7.93;;;5.00;99.90;;;;;;5087071;28;20093;-74
2021/12/04 13:31:00;;;;;;;23.98;8.85;;;5.00;99.90;;;;;;5086810;28;20024;-76
2021/12/04 13:33:27;;;;;;;32.13;12.65;;;4.90;99.90;;;;;;5086857;28;20071;-76
2021/12/04 13:35:52;;;;;;;23.88;9.00;;;4.90;99.90;;;;;;5069149;28;20060;-76
2021/12/04 13:38:21;;;;;;;18.80;7.85;;;4.90;99.90;;;;;;5069118;28;20086;-78
2021/12/04 13:40:49;;;;;;;17.73;6.75;;;4.90;99.90;;;;;;5086694;28;20084;-76
2021/12/04 13:43:18;;;;;;;18.77;7.75;;;5.00;99.90;;;;;;5069074;28;20400;-78
2021/12/04 13:45:45;;;;;;;24.48;11.75;;;4.90;99.90;;;;;;5069845;28;20038;-78
2021/12/04 13:48:12;;;;;;;30.20;12.82;;;5.00;99.90;;;;;;5089486;28;20025;-79
2021/12/04 13:53:14;;;;;;;15.90;7.07;;;5.00;99.90;;;;;;5107235;28;20051;-77
2021/12/04 13:55:44;;;;;;;17.52;7.40;;;5.00;99.90;;;;;;5088994;28;20032;-79
2021/12/04 13:58:12;;;;;;;21.63;6.95;;;4.90;99.90;;;;;;5089014;28;20117;-75
2021/12/04 14:00:38;;;;;;;12.18;6.45;;;5.00;99.90;;;;;;5107107;28;20051;-77
2021/12/04 14:03:04;;;;;;;13.05;6.05;;;5.00;99.90;;;;;;5088754;28;20122;-76
2021/12/04 14:05:30;;;;;;;19.75;6.72;;;4.90;99.90;;;;;;5106706;28;20040;-77
2021/12/04 14:08:01;;;;;;;13.27;6.45;;;4.90;99.90;;;;;;5088445;28;20028;-79
2021/12/04 14:10:31;;;;;;;17.98;6.05;;;4.90;99.90;;;;;;5106577;28;20392;-78
2021/12/04 14:12:59;;;;;;;15.38;6.40;;;4.90;99.90;;;;;;5106652;28;20036;-78
2021/12/04 14:15:26;;;;;;;17.05;6.63;;;4.90;99.90;;;;;;5097108;28;20076;-75
2021/12/04 14:18:22;;;;;;;22.45;7.78;;;4.90;99.90;;;;;;5092213;28;20050;-82
2021/12/04 14:20:50;;;;;;;15.55;6.80;;;4.90;99.90;;;;;;5097725;28;20053;-76
2021/12/04 14:23:16;;;;;;;15.63;6.63;;;5.00;99.90;;;;;;5101617;28;20099;-77
2021/12/04 14:25:44;;;;;;;18.38;7.15;;;5.00;99.90;;;;;;5089155;28;20071;-77
2021/12/04 14:28:15;;;;;;;14.00;6.47;;;4.80;99.90;;;;;;5091644;28;20017;-79
2021/12/04 14:30:44;;;;;;;15.27;6.75;;;4.80;99.90;;;;;;5090674;28;20074;-77
2021/12/04 14:33:12;;;;;;;14.05;6.43;;;4.80;99.90;;;;;;5096986;28;20601;-76
2021/12/04 14:35:42;;;;;;;17.45;6.38;;;4.80;99.90;;;;;;5105083;28;20020;-77
2021/12/04 14:38:12;;;;;;;15.85;6.38;;;4.80;99.90;;;;;;5073330;28;20047;-76
2021/12/04 14:40:43;;;;;;;22.60;6.88;;;4.90;99.90;;;;;;5112922;28;20035;-79
2021/12/04 14:43:19;;;;;;;15.38;5.95;;;4.80;99.90;;;;;;5105794;28;20031;-77
2021/12/04 14:45:48;;;;;;;16.63;7.05;;;4.80;99.90;;;;;;5092893;28;20050;-77
2021/12/04 14:48:24;;;;;;;16.17;6.57;;;4.80;99.90;;;;;;5086526;28;20012;-78
2021/12/04 14:50:58;;;;;;;17.42;6.00;;;4.80;99.90;;;;;;5076373;28;20032;-76
2021/12/04 14:53:24;;;;;;;16.35;5.95;;;4.80;99.90;;;;;;5069945;28;20021;-76
2021/12/04 14:55:51;;;;;;;16.30;6.28;;;4.80;99.90;;;;;;5105741;28;20082;-76
2021/12/04 14:58:20;;;;;;;18.98;7.68;;;4.80;99.90;;;;;;5091896;28;20025;-76
2021/12/04 15:01:15;;;;;;;14.93;6.07;;;4.80;99.90;;;;;;5067668;28;20024;-76
2021/12/04 15:03:55;;;;;;;16.10;6.88;;;4.80;99.90;;;;;;5085667;28;20045;-76
2021/12/04 15:06:22;;;;;;;17.10;7.45;;;4.70;99.90;;;;;;5076697;28;20052;-77
2021/12/04 15:09:01;;;;;;;14.45;6.13;;;4.80;99.90;;;;;;5086282;28;20107;-77
2021/12/04 15:11:31;;;;;;;13.45;6.18;;;4.80;99.90;;;;;;5085142;28;20060;-77
2021/12/04 15:14:11;;;;;;;16.25;7.32;;;4.80;99.90;;;;;;5087622;28;20020;-76
2021/12/04 15:16:45;;;;;;;14.52;6.43;;;4.80;99.90;;;;;;5089531;28;20055;-77
2021/12/04 15:22:08;;;;;;;20.13;7.13;;;4.80;99.90;;;;;;5103803;28;20099;-77
2021/12/04 15:24:39;;;;;;;17.17;6.28;;;4.80;99.90;;;;;;5087928;28;20125;-77
2021/12/04 15:27:18;;;;;;;17.17;7.35;;;4.80;99.90;;;;;;5087280;28;20484;-78
2021/12/04 15:29:53;;;;;;;15.23;6.20;;;4.90;99.90;;;;;;5106115;28;20044;-78
2021/12/04 15:32:25;;;;;;;16.92;6.72;;;4.80;99.90;;;;;;5068077;28;20110;-77
2021/12/04 15:35:00;;;;;;;16.60;6.13;;;4.80;99.90;;;;;;5085622;28;20079;-77
2021/12/04 15:37:57;;;;;;;14.20;7.03;;;4.90;99.90;;;;;;5086049;28;20103;-76
2021/12/04 15:40:49;;;;;;;17.58;6.65;;;4.80;99.90;;;;;;5085184;28;20031;-76
2021/12/04 15:43:31;;;;;;;14.63;6.22;;;4.80;99.90;;;;;;5067535;28;20039;-75
2021/12/04 15:52:48;;;;;;;13.05;5.53;;;4.80;99.90;;;;;;5083957;28;20067;-78
2021/12/04 15:54:58;;;;;;;12.52;5.18;;;4.80;99.90;;;;;;5087029;28;20451;-77
2021/12/04 15:57:29;;;;;;;13.32;5.55;;;4.80;99.90;;;;;;5077260;28;20027;-84